Terminal Aerodrome Forecast
Issued by NWS

Current Version | Previous Version | Graphics & Text | Print | Product List | Glossary On
Versions: 1 2 3 4 5 6 7 8 9 10 11 12 13 14 15 16 17 18 19 20 21 22 23 24 25
912
FTUS41 KPBZ 281138
TAFMGW
TAF
KMGW 281138Z 2812/2912 34003KT 3SM -SHRA SCT050 BKN070
     FM281300 07005KT P6SM VCSH SCT010 BKN025
     FM281700 VRB05KT P6SM VCSH OVC015
     FM290600 33001KT 6SM BR OVC008=

USA.gov is the U.S. government's official web portal to all federal, state and local government web resources and services.